Time;durP1;ratioP1;P1;durP2;ratioP2;P2;SDS_P1;SDS_P2;PMS_P1;PMS_P2;Temp;Humidity;BMP_temperature;BMP_pressure;BME280_temperature;BME280_humidity;BME280_pressure;Samples;Min_cycle;Max_cycle;Signal;HPM_P1;HPM_P2
2022/03/19 00:00:42;;;;;;;60.70;33.63;;;;;;;3.21;79.43;102776.84;5571345;32;33979;-64
2022/03/19 00:03:45;;;;;;;68.50;36.08;;;;;;;3.31;78.84;102782.56;5570924;32;35223;-64
2022/03/19 00:06:48;;;;;;;63.30;32.22;;;;;;;3.27;78.15;102780.97;5570916;32;34635;-64
2022/03/19 00:09:50;;;;;;;56.97;31.87;;;;;;;3.33;78.58;102780.75;5570929;32;33972;-63
2022/03/19 00:12:54;;;;;;;63.72;32.22;;;;;;;3.20;78.83;102772.50;5570822;32;34637;-63
2022/03/19 00:15:56;;;;;;;65.10;33.67;;;;;;;3.19;78.59;102767.34;5570841;32;34046;-64
2022/03/19 00:18:59;;;;;;;66.20;35.40;;;;;;;3.12;78.99;102771.09;5570792;32;34065;-64
2022/03/19 00:22:02;;;;;;;62.92;33.65;;;;;;;3.16;79.84;102762.19;5571026;32;33820;-64
2022/03/19 00:25:07;;;;;;;60.85;33.85;;;;;;;3.15;80.35;102760.50;5557128;32;34009;-64
2022/03/19 00:28:10;;;;;;;64.90;35.25;;;;;;;3.15;81.16;102771.81;5570587;31;33946;-64
2022/03/19 00:31:12;;;;;;;66.20;33.10;;;;;;;3.15;81.08;102757.88;5570714;32;34006;-64
2022/03/19 00:34:15;;;;;;;59.88;32.78;;;;;;;3.00;81.34;102752.31;5557065;32;34029;-64
2022/03/19 00:37:18;;;;;;;62.97;33.33;;;;;;;2.89;82.38;102754.53;5570540;32;34676;-64
2022/03/19 00:40:22;;;;;;;61.15;34.30;;;;;;;2.87;83.02;102756.34;5570632;32;34531;-64
2022/03/19 00:43:25;;;;;;;67.57;36.05;;;;;;;2.93;83.05;102748.25;5570521;32;33954;-64
2022/03/19 00:46:28;;;;;;;72.47;39.88;;;;;;;2.90;82.11;102751.00;5570863;32;34537;-64
2022/03/19 00:49:30;;;;;;;71.12;34.08;;;;;;;3.09;80.73;102747.63;5557005;32;34205;-64
2022/03/19 00:52:34;;;;;;;62.75;32.92;;;;;;;3.13;80.61;102743.97;5570762;32;34296;-64
2022/03/19 00:55:36;;;;;;;67.22;33.30;;;;;;;3.04;81.46;102739.97;5570650;32;34054;-64
2022/03/19 00:58:39;;;;;;;70.47;34.00;;;;;;;3.17;80.50;102745.53;5570883;32;34304;-64
2022/03/19 01:01:42;;;;;;;64.50;35.05;;;;;;;3.35;79.89;102742.16;5570611;32;33984;-64
2022/03/19 01:04:45;;;;;;;63.72;36.30;;;;;;;3.41;78.86;102736.66;5570557;32;34295;-64
2022/03/19 01:07:52;;;;;;;70.55;37.38;;;;;;;3.14;80.53;102730.81;5570791;32;34044;-63
2022/03/19 01:10:55;;;;;;;69.10;38.85;;;;;;;3.11;80.59;102728.28;5570561;32;34640;-64
2022/03/19 01:13:57;;;;;;;59.85;34.00;;;;;;;3.20;80.54;102725.28;5570501;32;34019;-63
2022/03/19 01:17:00;;;;;;;75.87;33.92;;;;;;;3.22;79.83;102730.47;5570391;32;33887;-64
2022/03/19 01:20:04;;;;;;;66.37;34.55;;;;;;;3.16;80.15;102725.47;5570351;32;34389;-64
2022/03/19 01:23:07;;;;;;;63.67;33.42;;;;;;;3.01;78.62;102727.81;5570386;32;33982;-64
2022/03/19 01:26:10;;;;;;;63.85;33.83;;;;;;;2.97;77.64;102730.63;5570568;32;34540;-65
2022/03/19 01:29:13;;;;;;;68.65;33.55;;;;;;;2.98;77.53;102725.31;5570648;32;33994;-64
2022/03/19 01:32:15;;;;;;;68.10;34.35;;;;;;;2.93;77.40;102724.66;5569882;32;34081;-64
2022/03/19 01:35:20;;;;;;;70.10;34.30;;;;;;;2.86;77.81;102720.56;5570416;32;34377;-64
2022/03/19 01:38:22;;;;;;;71.20;34.00;;;;;;;2.75;77.68;102711.44;5556736;32;35189;-63
2022/03/19 01:41:25;;;;;;;63.95;34.13;;;;;;;2.58;78.00;102702.44;5570321;32;34566;-64
2022/03/19 01:44:27;;;;;;;69.70;34.08;;;;;;;2.38;78.53;102699.75;5570266;32;34189;-64
2022/03/19 01:47:31;;;;;;;64.80;34.65;;;;;;;2.18;79.64;102704.87;5570200;32;34435;-63
2022/03/19 01:50:33;;;;;;;62.03;32.72;;;;;;;2.03;80.29;102702.84;5556446;32;34207;-64
2022/03/19 01:53:36;;;;;;;63.25;33.25;;;;;;;1.92;80.12;102695.38;5570111;32;34122;-63
2022/03/19 01:57:01;;;;;;;62.15;31.00;;;;;;;1.87;80.10;102699.94;5453219;32;34598;-64
2022/03/19 02:00:09;;;;;;;70.60;33.95;;;;;;;1.86;79.70;102687.75;5557823;32;33801;-64
2022/03/19 02:03:13;;;;;;;62.92;32.28;;;;;;;1.90;80.16;102684.09;5570057;32;34325;-64
2022/03/19 02:06:16;;;;;;;61.70;32.33;;;;;;;2.03;79.29;102682.72;5570019;32;33989;-65
2022/03/19 02:09:18;;;;;;;63.47;34.25;;;;;;;2.07;78.59;102686.97;5570003;32;34152;-64
2022/03/19 02:12:21;;;;;;;62.03;34.30;;;;;;;2.06;79.67;102685.25;5569911;32;34659;-64
2022/03/19 02:15:24;;;;;;;60.85;32.75;;;;;;;2.09;78.99;102681.66;5570051;32;34570;-64
2022/03/19 02:18:27;;;;;;;67.43;32.97;;;;;;;1.95;79.29;102682.16;5569865;32;34210;-64
2022/03/19 02:22:02;;;;;;;63.83;33.80;;;;;;;1.83;79.53;102687.00;5569847;32;34184;-64
2022/03/19 02:28:27;;;;;;;64.15;34.03;;;;;;;1.67;79.70;102674.47;5569601;32;33999;-64
2022/03/19 02:31:30;;;;;;;67.22;33.40;;;;;;;1.67;79.66;102677.09;5569920;32;33935;-64
2022/03/19 02:34:33;;;;;;;68.28;34.05;;;;;;;1.70;79.70;102668.25;5569764;32;34003;-64
2022/03/19 02:37:40;;;;;;;73.57;36.25;;;;;;;1.75;79.58;102668.97;5569769;32;34564;-64
2022/03/19 02:40:45;;;;;;;70.45;34.28;;;;;;;1.77;79.98;102667.16;5569579;32;34581;-64
2022/03/19 02:43:48;;;;;;;67.05;33.47;;;;;;;1.81;80.90;102663.50;5568990;32;34599;-64
2022/03/19 02:46:54;;;;;;;65.45;35.88;;;;;;;1.83;80.48;102660.84;5569290;32;34299;-63
2022/03/19 02:49:56;;;;;;;73.07;36.45;;;;;;;1.89;80.35;102661.44;5569526;32;34024;-64
2022/03/19 02:53:03;;;;;;;73.82;34.65;;;;;;;2.04;80.86;102673.97;5569714;32;34175;-64
2022/03/19 02:56:06;;;;;;;69.75;36.50;;;;;;;2.16;80.25;102665.69;5569554;32;34516;-64
2022/03/19 02:59:12;;;;;;;70.78;35.60;;;;;;;2.24;80.29;102665.38;5569339;32;34748;-64
2022/03/19 03:02:16;;;;;;;78.32;37.53;;;;;;;2.31;79.59;102666.84;5569407;32;34515;-64
2022/03/19 03:05:19;;;;;;;79.97;37.03;;;;;;;2.37;79.62;102676.25;5569631;32;34071;-65
2022/03/19 03:08:23;;;;;;;75.40;36.70;;;;;;;2.36;79.92;102674.53;5569218;32;34019;-64
2022/03/19 03:11:25;;;;;;;73.32;38.45;;;;;;;2.42;79.57;102671.69;5569152;32;33962;-64
2022/03/19 03:14:29;;;;;;;77.10;39.75;;;;;;;2.53;79.19;102659.84;5569112;32;34663;-64
2022/03/19 03:17:33;;;;;;;80.18;42.00;;;;;;;2.49;79.87;102663.50;5568944;32;34000;-64
2022/03/19 03:20:36;;;;;;;74.53;38.60;;;;;;;2.53;79.86;102665.09;5568990;32;33991;-64
2022/03/19 03:23:39;;;;;;;70.45;37.75;;;;;;;2.61;79.59;102670.03;5569112;32;34229;-64
2022/03/19 03:26:43;;;;;;;72.87;35.67;;;;;;;2.66;79.30;102667.25;5568901;32;34576;-64
2022/03/19 03:29:45;;;;;;;75.45;35.42;;;;;;;2.67;79.38;102671.53;5569150;32;34026;-64
2022/03/19 03:32:48;;;;;;;70.18;36.10;;;;;;;2.72;79.18;102670.44;5568972;32;33909;-64
2022/03/19 03:35:50;;;;;;;69.90;35.08;;;;;;;2.89;77.93;102667.16;5569103;32;34429;-64
2022/03/19 03:38:53;;;;;;;77.97;38.08;;;;;;;2.88;77.22;102661.06;5555421;32;34020;-64
2022/03/19 03:41:56;;;;;;;76.35;39.78;;;;;;;2.81;77.27;102654.34;5569024;32;34635;-64
2022/03/19 03:44:59;;;;;;;74.40;39.70;;;;;;;2.82;77.69;102649.97;5568681;32;33924;-64
2022/03/19 03:48:01;;;;;;;78.70;40.45;;;;;;;2.85;77.73;102649.84;5568590;32;35291;-64
2022/03/19 03:51:08;;;;;;;76.45;39.88;;;;;;;2.78;78.30;102644.00;5568428;32;34047;-64
2022/03/19 03:54:12;;;;;;;66.80;35.22;;;;;;;2.93;77.10;102643.37;5568583;32;34593;-64
2022/03/19 03:57:15;;;;;;;64.85;33.88;;;;;;;2.74;78.54;102645.03;5570322;32;33924;-64
2022/03/19 04:00:17;;;;;;;68.15;34.25;;;;;;;2.68;80.33;102641.81;5571304;32;34049;-64
2022/03/19 04:03:20;;;;;;;61.50;33.13;;;;;;;2.70;81.70;102651.34;5557504;32;33956;-63
2022/03/19 04:06:23;;;;;;;67.55;33.58;;;;;;;2.78;84.13;102649.25;5571143;32;33923;-64
2022/03/19 04:09:26;;;;;;;67.45;35.00;;;;;;;2.66;85.23;102649.75;5571202;32;34511;-64
2022/03/19 04:12:30;;;;;;;69.60;36.05;;;;;;;2.66;85.36;102647.13;5570989;32;34016;-64
2022/03/19 04:15:33;;;;;;;59.53;31.95;;;;;;;2.83;84.45;102641.19;5570888;32;33979;-64
2022/03/19 04:18:36;;;;;;;63.90;32.50;;;;;;;2.74;84.55;102644.19;5570934;32;33914;-64
2022/03/19 04:21:38;;;;;;;66.75;32.92;;;;;;;2.68;84.72;102641.81;5570884;32;34603;-64
2022/03/19 04:24:41;;;;;;;62.95;31.35;;;;;;;2.53;85.33;102648.50;5557201;32;34450;-64
2022/03/19 04:27:46;;;;;;;68.03;32.45;;;;;;;2.59;85.44;102643.91;5571047;32;33900;-64
2022/03/19 04:30:49;;;;;;;62.70;33.05;;;;;;;2.55;86.67;102651.94;5570917;32;34554;-64
2022/03/19 04:33:52;;;;;;;68.65;35.53;;;;;;;2.62;86.68;102656.00;5570946;32;33980;-64
2022/03/19 04:36:54;;;;;;;64.82;34.13;;;;;;;2.53;87.15;102644.13;5570941;32;34031;-64
2022/03/19 04:39:57;;;;;;;67.37;36.30;;;;;;;2.71;85.87;102647.78;5570816;32;33899;-64
2022/03/19 04:43:00;;;;;;;71.25;33.80;;;;;;;2.75;85.97;102641.53;5570815;32;34048;-64
2022/03/19 04:46:03;;;;;;;64.30;33.58;;;;;;;2.72;84.81;102644.25;5570857;32;35149;-64
2022/03/19 04:49:08;;;;;;;67.50;33.70;;;;;;;2.63;81.86;102645.47;5570714;32;34128;-64
2022/03/19 04:52:11;;;;;;;72.70;35.95;;;;;;;2.74;82.48;102644.19;5570605;32;33851;-63
2022/03/19 04:55:14;;;;;;;69.57;34.50;;;;;;;2.75;83.29;102652.00;5570447;32;34823;-64
2022/03/19 04:58:18;;;;;;;67.70;35.38;;;;;;;2.84;83.01;102653.37;5570927;32;34062;-64
2022/03/19 05:01:23;;;;;;;67.82;36.30;;;;;;;2.89;82.48;102654.91;5570774;32;34068;-64
2022/03/19 05:04:27;;;;;;;64.35;36.15;;;;;;;2.88;82.77;102652.34;5570583;32;34166;-64
2022/03/19 05:07:35;;;;;;;64.87;35.42;;;;;;;2.90;82.74;102654.00;5569782;32;34603;-64
2022/03/19 05:13:59;;;;;;;61.67;33.10;;;;;;;2.85;82.39;102655.97;5570526;32;33884;-64
2022/03/19 05:17:02;;;;;;;66.93;34.35;;;;;;;2.84;84.44;102653.37;5570832;32;34510;-64
2022/03/19 05:20:05;;;;;;;69.25;35.40;;;;;;;2.80;85.74;102657.91;5570375;32;34288;-64
2022/03/19 05:23:09;;;;;;;62.83;32.80;;;;;;;2.82;87.35;102657.81;5570718;32;34626;-64
2022/03/19 05:26:12;;;;;;;62.13;32.65;;;;;;;2.65;89.75;102669.00;5570261;31;34496;-65
2022/03/19 05:29:15;;;;;;;63.10;32.75;;;;;;;2.78;88.94;102670.22;5570256;32;34296;-63
2022/03/19 05:32:22;;;;;;;62.05;33.80;;;;;;;2.69;88.76;102665.34;5570382;32;34114;-63
2022/03/19 05:35:26;;;;;;;65.65;34.60;;;;;;;2.61;89.21;102667.44;5570291;32;34181;-64
2022/03/19 05:38:29;;;;;;;70.32;35.97;;;;;;;2.72;88.82;102665.22;5570270;32;34403;-64
2022/03/19 05:41:32;;;;;;;70.97;36.55;;;;;;;2.60;89.58;102663.09;5570239;32;34574;-64
2022/03/19 05:44:37;;;;;;;63.15;34.17;;;;;;;2.70;89.07;102674.06;5570203;32;33998;-64
2022/03/19 05:47:40;;;;;;;70.50;36.38;;;;;;;2.78;88.41;102672.84;5570364;32;34063;-64
2022/03/19 05:50:43;;;;;;;67.68;35.67;;;;;;;2.62;88.74;102667.34;5570148;32;34144;-63
2022/03/19 05:53:45;;;;;;;67.65;35.97;;;;;;;2.72;88.20;102659.12;5556420;32;34666;-64
2022/03/19 05:56:48;;;;;;;67.72;35.10;;;;;;;2.92;87.44;102661.78;5556373;32;34130;-64
2022/03/19 05:59:51;;;;;;;67.20;35.53;;;;;;;3.14;85.55;102664.37;5569744;32;33917;-64
2022/03/19 06:02:53;;;;;;;71.35;34.47;;;;;;;3.22;84.74;102668.38;5570400;32;34045;-64
2022/03/19 06:05:57;;;;;;;72.03;35.38;;;;;;;3.34;82.08;102661.78;5570100;32;34452;-65
2022/03/19 06:08:59;;;;;;;65.25;34.05;;;;;;;3.46;81.25;102669.09;5569971;32;34716;-63
2022/03/19 06:12:03;;;;;;;67.32;34.78;;;;;;;3.57;79.65;102671.25;5569920;32;33984;-65
2022/03/19 06:15:06;;;;;;;64.50;34.08;;;;;;;3.45;79.28;102676.12;5570350;32;34600;-65
2022/03/19 06:18:09;;;;;;;68.57;34.85;;;;;;;3.53;79.64;102673.19;5569777;32;33850;-65
2022/03/19 06:21:12;;;;;;;61.90;32.90;;;;;;;3.55;79.98;102673.94;5569885;32;33948;-64
2022/03/19 06:24:14;;;;;;;65.07;35.00;;;;;;;3.65;78.54;102679.66;5569652;32;34045;-64
2022/03/19 06:27:17;;;;;;;72.45;35.78;;;;;;;3.73;79.20;102677.53;5569794;32;35368;-65
2022/03/19 06:30:20;;;;;;;65.43;34.47;;;;;;;3.73;78.81;102688.03;5569772;32;33894;-64
2022/03/19 06:33:22;;;;;;;64.28;34.47;;;;;;;3.91;78.53;102685.47;5569712;32;34291;-64
2022/03/19 06:39:49;;;;;;;71.37;34.72;;;;;;;3.89;79.39;102686.44;5569387;32;34063;-64
2022/03/19 06:42:52;;;;;;;62.38;34.30;;;;;;;4.00;78.71;102692.06;5569678;32;33979;-65
2022/03/19 06:45:57;;;;;;;66.45;32.38;;;;;;;3.83;78.75;102681.44;5569618;32;34590;-64
2022/03/19 06:49:00;;;;;;;67.68;34.35;;;;;;;3.87;79.58;102688.28;5569281;32;35267;-64
2022/03/19 06:52:03;;;;;;;68.72;33.88;;;;;;;4.02;78.33;102687.56;5568963;32;33907;-64
2022/03/19 06:55:06;;;;;;;59.42;32.63;;;;;;;4.14;78.46;102681.78;5569199;32;34539;-63
2022/03/19 06:58:09;;;;;;;61.40;33.70;;;;;;;4.34;77.82;102681.72;5569359;32;34236;-64
2022/03/19 07:01:15;;;;;;;62.38;32.90;;;;;;;4.28;77.87;102681.13;5555536;32;33952;-64
2022/03/19 07:04:20;;;;;;;66.03;32.97;;;;;;;4.42;77.50;102676.09;5569201;32;33930;-64
2022/03/19 07:07:24;;;;;;;57.38;30.30;;;;;;;4.64;75.38;102681.19;5569103;32;34026;-64
2022/03/19 07:10:27;;;;;;;50.38;23.20;;;;;;;4.72;73.77;102687.78;5569171;32;33919;-64
2022/03/19 07:13:31;;;;;;;47.62;23.58;;;;;;;4.85;64.75;102681.91;5555257;32;33994;-64
2022/03/19 07:16:34;;;;;;;40.35;23.48;;;;;;;5.08;62.76;102693.00;5569023;32;34389;-64
2022/03/19 07:19:37;;;;;;;51.65;27.98;;;;;;;5.41;61.94;102689.62;5569304;32;33902;-64
2022/03/19 07:22:47;;;;;;;56.95;31.27;;;;;;;5.42;66.50;102693.97;5555222;32;33986;-64
2022/03/19 07:25:50;;;;;;;56.47;29.60;;;;;;;5.13;70.86;102692.81;5568902;32;33925;-64
2022/03/19 07:28:53;;;;;;;53.03;29.52;;;;;;;4.86;72.13;102692.38;5568556;32;34328;-64
2022/03/19 07:31:55;;;;;;;58.20;28.67;;;;;;;4.65;73.29;102696.88;5556573;32;34007;-64
2022/03/19 07:34:59;;;;;;;55.90;28.52;;;;;;;4.59;73.26;102701.59;5557605;32;35179;-64
2022/03/19 07:38:04;;;;;;;56.08;28.83;;;;;;;4.64;73.22;102702.22;5571044;32;34660;-64
2022/03/19 07:44:30;;;;;;;57.28;29.85;;;;;;;4.34;75.15;102707.13;5571219;32;34461;-64
2022/03/19 07:47:34;;;;;;;56.33;28.25;;;;;;;4.62;73.37;102697.03;5557695;32;33974;-64
2022/03/19 07:50:38;;;;;;;56.35;29.77;;;;;;;4.79;71.82;102704.13;5571182;32;34297;-64
2022/03/19 07:53:41;;;;;;;64.12;29.83;;;;;;;5.17;70.73;102699.62;5571216;32;35250;-64
2022/03/19 07:56:43;;;;;;;51.75;28.70;;;;;;;5.41;68.78;102695.75;5570959;32;34050;-64
2022/03/19 07:59:46;;;;;;;54.30;27.42;;;;;;;5.84;67.90;102704.06;5570823;32;34178;-64
2022/03/19 08:02:49;;;;;;;53.97;26.62;;;;;;;6.39;63.88;102708.06;5570618;32;33931;-64
2022/03/19 08:05:51;;;;;;;50.30;25.90;;;;;;;7.07;60.38;102705.97;5570919;32;33987;-64
2022/03/19 08:08:54;;;;;;;52.95;25.52;;;;;;;8.36;55.20;102716.69;5571046;32;34554;-64
2022/03/19 08:11:58;;;;;;;42.88;21.27;;;;;;;9.04;51.73;102712.25;5570912;32;35124;-64
2022/03/19 08:15:03;;;;;;;36.97;20.98;;;;;;;9.54;48.08;102713.28;5570826;32;34667;-64
2022/03/19 08:18:09;;;;;;;37.35;18.60;;;;;;;9.99;47.01;102718.06;5570770;32;34628;-64
2022/03/19 08:21:11;;;;;;;33.92;19.30;;;;;;;9.91;44.87;102717.78;5570757;32;34043;-64
2022/03/19 08:24:14;;;;;;;31.27;19.42;;;;;;;9.27;45.83;102712.50;5570887;32;34680;-65
2022/03/19 08:27:17;;;;;;;37.42;19.45;;;;;;;9.78;44.91;102708.13;5570855;32;35145;-65
2022/03/19 08:30:20;;;;;;;34.22;19.05;;;;;;;9.52;44.17;102715.19;5570794;32;34929;-64
2022/03/19 08:33:23;;;;;;;33.33;18.52;;;;;;;9.33;44.03;102710.31;5557147;32;34584;-64
2022/03/19 08:36:26;;;;;;;33.25;18.75;;;;;;;9.53;44.52;102712.47;5570522;32;34605;-65
2022/03/19 08:42:51;;;;;;;31.25;17.80;;;;;;;8.68;45.94;102714.63;5569656;32;34695;-65
2022/03/19 08:45:54;;;;;;;34.15;19.33;;;;;;;9.07;45.20;102711.16;5570646;32;33974;-64
2022/03/19 08:48:57;;;;;;;34.85;18.33;;;;;;;9.27;44.76;102713.34;5570936;32;33996;-65
2022/03/19 08:52:00;;;;;;;34.03;18.70;;;;;;;9.79;43.01;102713.31;5570579;32;34081;-65
2022/03/19 08:55:04;;;;;;;33.63;17.77;;;;;;;8.88;44.69;102708.03;5570646;32;34305;-64
2022/03/19 08:58:07;;;;;;;42.95;18.33;;;;;;;8.48;46.24;102704.44;5570461;32;35244;-64
2022/03/19 09:01:10;;;;;;;31.55;18.37;;;;;;;8.54;46.58;102714.66;5570351;32;34273;-64
2022/03/19 09:04:15;;;;;;;33.78;18.73;;;;;;;8.47;46.51;102708.88;5570526;32;34197;-65
2022/03/19 09:07:18;;;;;;;32.13;17.30;;;;;;;9.10;44.87;102705.69;5570542;32;34018;-64
2022/03/19 09:10:21;;;;;;;32.65;17.12;;;;;;;9.21;45.10;102704.94;5570464;32;34349;-64
2022/03/19 09:13:24;;;;;;;31.37;18.15;;;;;;;8.43;44.51;102706.53;5570416;32;33909;-64
2022/03/19 09:16:26;;;;;;;29.15;16.62;;;;;;;8.74;45.21;102701.00;5570438;32;33985;-64
2022/03/19 09:19:29;;;;;;;33.47;16.77;;;;;;;8.59;44.90;102701.97;5570468;32;34636;-64
2022/03/19 09:22:32;;;;;;;33.00;16.67;;;;;;;8.81;45.04;102698.81;5556622;32;34293;-64
2022/03/19 09:25:36;;;;;;;29.30;16.35;;;;;;;9.31;44.63;102700.75;5556604;32;34628;-64
2022/03/19 09:28:39;;;;;;;25.27;15.80;;;;;;;9.25;42.74;102695.84;5569975;32;34109;-65
2022/03/19 09:31:42;;;;;;;31.83;15.32;;;;;;;9.80;42.01;102696.44;5570041;32;34486;-64
2022/03/19 09:34:48;;;;;;;27.45;15.60;;;;;;;9.57;41.43;102694.53;5569812;32;35180;-65
2022/03/19 09:37:51;;;;;;;26.00;14.57;;;;;;;8.98;42.64;102698.53;5570051;32;34713;-65
2022/03/19 09:40:58;;;;;;;33.72;15.57;;;;;;;9.16;41.65;102700.81;5569983;32;34021;-65
2022/03/19 09:44:01;;;;;;;24.23;14.73;;;;;;;9.11;42.10;102708.22;5570002;32;33571;-65
2022/03/19 09:47:05;;;;;;;23.02;14.70;;;;;;;9.68;41.31;102697.31;5570160;32;34310;-65
2022/03/19 09:50:08;;;;;;;27.77;14.40;;;;;;;10.60;38.89;102694.34;5570176;32;33897;-65
2022/03/19 09:53:12;;;;;;;24.83;14.15;;;;;;;9.87;39.53;102695.09;5569580;32;34437;-65
2022/03/19 09:56:16;;;;;;;26.92;14.98;;;;;;;10.48;39.17;102700.50;5569834;32;34277;-65
2022/03/19 09:59:22;;;;;;;21.33;13.25;;;;;;;10.95;37.93;102687.25;5569199;32;34078;-65
2022/03/19 10:02:25;;;;;;;25.33;13.82;;;;;;;10.97;36.38;102693.31;5555647;32;34199;-65
2022/03/19 10:08:59;;;;;;;31.17;15.73;;;;;;;10.83;37.79;102686.38;5570110;32;33953;-65
2022/03/19 10:12:03;;;;;;;24.40;15.13;;;;;;;10.55;39.33;102686.72;5569851;32;34231;-65
2022/03/19 10:15:10;;;;;;;25.20;15.35;;;;;;;10.83;37.99;102689.03;5556082;32;33893;-65
2022/03/19 10:18:13;;;;;;;24.90;14.93;;;;;;;11.65;36.94;102684.56;5569171;32;34576;-66
2022/03/19 10:21:17;;;;;;;25.88;16.25;;;;;;;10.25;39.00;102691.56;5569318;32;34462;-66
2022/03/19 10:24:25;;;;;;;26.35;16.27;;;;;;;9.76;40.75;102689.66;5556203;32;34627;-66
2022/03/19 10:27:38;;;;;;;22.35;14.65;;;;;;;9.88;41.25;102682.66;5559324;31;328122;-66
2022/03/19 10:30:41;;;;;;;24.15;15.75;;;;;;;10.68;39.64;102682.19;5543542;32;33869;-66
2022/03/19 10:33:48;;;;;;;23.98;14.07;;;;;;;10.80;39.12;102683.06;5569240;32;34819;-66
2022/03/19 10:36:51;;;;;;;20.62;12.57;;;;;;;11.46;36.87;102682.50;5569878;32;34330;-65
2022/03/19 10:39:54;;;;;;;24.90;12.70;;;;;;;10.52;35.31;102672.78;5569049;32;33979;-64
2022/03/19 10:42:57;;;;;;;20.08;11.68;;;;;;;10.68;35.25;102676.88;5569300;32;33857;-65
2022/03/19 10:46:03;;;;;;;19.70;12.15;;;;;;;11.33;33.59;102677.25;5569472;32;34656;-64
2022/03/19 10:49:12;;;;;;;17.95;11.32;;;;;;;11.02;33.23;102672.56;5569462;32;33854;-64
2022/03/19 10:52:17;;;;;;;25.45;12.63;;;;;;;12.32;32.24;102671.31;5569412;32;34152;-65
2022/03/19 10:55:21;;;;;;;18.98;12.57;;;;;;;11.77;32.98;102673.84;5569340;32;34083;-64
2022/03/19 10:58:23;;;;;;;22.92;12.65;;;;;;;11.81;32.53;102668.31;5569348;32;34728;-64
2022/03/19 11:01:42;;;;;;;23.90;13.07;;;;;;;12.74;31.42;102662.47;5569145;32;34466;-65
2022/03/19 11:04:47;;;;;;;21.85;13.13;;;;;;;11.73;32.79;102661.78;5568558;32;34772;-65
2022/03/19 11:07:51;;;;;;;22.02;13.35;;;;;;;12.64;31.25;102650.87;5568663;32;33883;-64
2022/03/19 11:10:57;;;;;;;20.48;12.68;;;;;;;13.78;30.08;102642.06;5569048;32;34352;-64
2022/03/19 11:14:02;;;;;;;24.25;13.05;;;;;;;15.29;27.04;102636.37;5569106;32;34088;-65
2022/03/19 11:17:24;;;;;;;22.70;13.00;;;;;;;14.99;27.30;102637.41;5555028;32;33983;-64
2022/03/19 11:20:27;;;;;;;22.50;13.65;;;;;;;14.77;27.42;102630.50;5568731;32;34127;-64
2022/03/19 11:23:50;;;;;;;21.30;13.25;;;;;;;13.86;29.06;102628.03;5555089;32;34121;-64
2022/03/19 11:26:54;;;;;;;20.50;12.27;;;;;;;14.54;27.03;102615.72;5568782;31;34104;-65
2022/03/19 11:29:59;;;;;;;21.83;12.48;;;;;;;15.45;25.35;102621.41;5568544;32;34044;-65
2022/03/19 11:33:07;;;;;;;21.15;12.18;;;;;;;17.20;23.16;102612.16;5568506;32;34326;-66
2022/03/19 11:36:10;;;;;;;18.40;12.10;;;;;;;19.86;21.17;102605.59;5568461;32;34230;-66
2022/03/19 11:39:13;;;;;;;20.65;12.00;;;;;;;20.99;19.22;102588.72;5555260;32;34399;-65
2022/03/19 11:42:16;;;;;;;22.23;13.32;;;;;;;19.10;21.43;102593.50;5568069;32;34617;-66
2022/03/19 11:45:19;;;;;;;20.50;13.25;;;;;;;19.03;22.06;102600.56;5568711;32;33978;-66
2022/03/19 11:48:34;;;;;;;19.12;12.95;;;;;;;20.45;20.27;102585.28;5568548;32;34656;-67
2022/03/19 11:51:38;;;;;;;17.37;12.23;;;;;;;22.14;19.09;102584.56;5568276;32;33949;-66
2022/03/19 11:54:59;;;;;;;21.00;13.00;;;;;;;21.24;19.39;102570.47;5567908;32;34664;-67
2022/03/19 11:58:06;;;;;;;21.12;13.60;;;;;;;22.68;18.13;102562.44;5568533;32;34602;-67
2022/03/19 12:01:13;;;;;;;32.33;11.88;;;;;;;21.92;18.53;102566.59;5554794;32;34369;-66
2022/03/19 12:04:17;;;;;;;16.60;11.52;;;;;;;19.62;20.23;102574.22;5568204;32;34000;-67
2022/03/19 12:07:44;;;;;;;19.87;12.52;;;;;;;19.80;19.87;102564.03;5567467;32;34681;-65
2022/03/19 12:11:01;;;;;;;17.58;12.32;;;;;;;19.41;20.55;102560.47;5553901;32;34683;-66
2022/03/19 12:14:13;;;;;;;17.23;10.57;;;;;;;20.77;19.21;102560.72;5568018;32;34248;-66
2022/03/19 12:17:27;;;;;;;14.80;10.45;;;;;;;20.00;19.37;102556.38;5568770;32;34056;-66
2022/03/19 12:20:30;;;;;;;15.93;10.02;;;;;;;19.45;20.01;102561.84;5570876;32;34792;-67
2022/03/19 12:24:29;;;;;;;16.12;10.80;;;;;;;22.45;17.07;102555.37;5570866;32;33955;-66
2022/03/19 12:27:32;;;;;;;14.85;10.07;;;;;;;22.57;17.51;102546.72;5486863;31;34522;-67
2022/03/19 12:30:36;;;;;;;17.58;10.95;;;;;;;22.86;16.36;102544.72;5570714;32;34077;-67
2022/03/19 12:33:39;;;;;;;18.85;10.68;;;;;;;21.25;17.70;102539.75;5570705;32;34306;-66
2022/03/19 12:36:42;;;;;;;17.48;10.98;;;;;;;19.27;19.28;102545.00;5557108;32;34011;-66
2022/03/19 12:39:56;;;;;;;16.80;11.32;;;;;;;19.13;20.12;102549.25;5556950;32;34757;-66
2022/03/19 12:42:59;;;;;;;14.30;10.18;;;;;;;19.24;19.91;102540.84;5570219;32;34475;-66
2022/03/19 12:46:04;;;;;;;20.67;10.80;;;;;;;22.54;17.15;102531.72;5570004;32;34062;-66
2022/03/19 12:49:12;;;;;;;20.33;10.35;;;;;;;19.45;19.23;102535.75;5556610;32;33962;-68
2022/03/19 12:52:14;;;;;;;16.98;10.63;;;;;;;19.88;18.72;102533.56;5570881;32;33961;-66
2022/03/19 12:55:20;;;;;;;13.48;9.38;;;;;;;21.30;17.14;102541.87;5570418;32;35223;-66
2022/03/19 12:58:24;;;;;;;16.12;9.68;;;;;;;19.78;18.76;102535.63;5570501;32;34414;-66
2022/03/19 13:01:28;;;;;;;17.87;9.32;;;;;;;22.18;16.70;102533.62;5570727;32;33964;-67
2022/03/19 13:04:32;;;;;;;14.98;9.20;;;;;;;22.13;16.07;102539.63;5570345;32;34029;-66
2022/03/19 13:07:34;;;;;;;13.82;9.38;;;;;;;23.67;15.09;102535.03;5557114;32;34418;-66
2022/03/19 13:10:42;;;;;;;14.35;9.50;;;;;;;20.25;17.20;102536.34;5570581;32;34796;-66
2022/03/19 13:13:47;;;;;;;17.35;9.50;;;;;;;20.98;16.83;102529.53;5557136;32;34555;-66
2022/03/19 13:16:54;;;;;;;14.60;9.65;;;;;;;18.31;18.54;102528.75;5570423;32;34107;-66
2022/03/19 13:20:12;;;;;;;16.67;9.40;;;;;;;16.75;20.48;102531.91;5570215;32;34530;-65
2022/03/19 13:23:15;;;;;;;17.35;9.80;;;;;;;15.22;22.36;102540.69;5570180;32;34590;-65
2022/03/19 13:26:18;;;;;;;16.15;9.10;;;;;;;14.05;23.52;102541.84;5556398;32;34630;-65
2022/03/19 13:29:32;;;;;;;19.00;9.25;;;;;;;13.95;23.52;102533.81;5569718;32;33892;-65
2022/03/19 13:32:35;;;;;;;13.88;8.70;;;;;;;16.83;20.72;102518.56;5570214;32;34621;-65
2022/03/19 13:35:39;;;;;;;15.13;8.93;;;;;;;20.26;17.55;102524.56;5570381;32;34643;-67
2022/03/19 13:38:42;;;;;;;14.48;8.40;;;;;;;23.47;14.85;102527.88;5570012;32;35187;-66
2022/03/19 13:41:45;;;;;;;15.18;8.43;;;;;;;20.26;16.45;102521.00;5570029;32;34252;-66
2022/03/19 13:44:58;;;;;;;21.02;7.75;;;;;;;22.59;15.02;102526.56;5570032;32;34637;-66
2022/03/19 13:48:07;;;;;;;12.52;8.32;;;;;;;19.89;16.46;102525.31;5570443;32;34324;-66
2022/03/19 13:51:11;;;;;;;17.30;9.88;;;;;;;19.37;16.76;102522.28;5570182;32;35425;-66
2022/03/19 13:54:14;;;;;;;15.35;8.13;;;;;;;18.99;16.64;102523.06;5569642;32;34396;-66
2022/03/19 13:57:16;;;;;;;16.25;7.72;;;;;;;19.20;16.65;102517.97;5570159;32;33960;-66
2022/03/19 14:00:28;;;;;;;12.60;7.35;;;;;;;20.84;15.46;102515.00;5556562;32;34299;-66
2022/03/19 14:03:31;;;;;;;15.18;8.25;;;;;;;22.15;14.04;102518.66;5569973;32;34042;-66
2022/03/19 14:06:36;;;;;;;13.45;7.62;;;;;;;21.31;14.45;102521.94;5569533;32;34048;-66
2022/03/19 14:09:44;;;;;;;13.00;7.70;;;;;;;20.95;14.54;102509.16;5569601;32;34131;-66
2022/03/19 14:12:47;;;;;;;15.32;7.30;;;;;;;21.81;13.91;102521.97;5569859;32;34165;-66
2022/03/19 14:15:56;;;;;;;10.88;7.18;;;;;;;19.59;15.24;102523.44;5570218;32;34601;-66
2022/03/19 14:19:01;;;;;;;11.02;7.12;;;;;;;21.21;14.04;102514.97;5568829;32;34201;-67
2022/03/19 14:22:04;;;;;;;13.07;7.53;;;;;;;19.45;15.05;102514.22;5569730;32;34763;-66
2022/03/19 14:25:07;;;;;;;12.52;7.30;;;;;;;22.49;13.29;102517.94;5569592;32;34886;-66